• Join FlightAware (Why Join?)
  • Login
  • US Flag 
07:44AM EDT


 

Airport Tracker/Info


-or-


 

Live Flight TrackerFlight Track Log ✈ N569SC ✈ 28-Apr-2013 ✈ KTXK - KMDW

Flight Track Log - Related Links

Times and Time Zones

All times are in EDT time to prevent confusion due to time zone crossing. See the N569SC flight status page for this flight to view local times or setup timezone preferences in your user account.

Time Position Orientation Groundspeed Altitude Reporting Facility
EDT Latitude Longitude Course Direction KTS MPH feet Rate Location/Type
12:05PM 33.4936 -93.9636 23° Northeast 418 481 3,400  Level Fort Worth Center
12:06PM 33.5553 -93.9264 27° Northeast 326 375 5,600 1,260 Climbing Fort Worth Center
12:07PM 33.6147 -93.8892 28° Northeast 278 320 6,000 180 Climbing Fort Worth Center
12:08PM 33.6783 -93.8492 28° Northeast 251 289 6,000  Level Fort Worth Center
12:09PM 33.7378 -93.8092 29° Northeast 246 283 6,100 2,340 Climbing Fort Worth Center
12:10PM 33.9895 -93.6302 23° Northeast  Level FlightAware Approximate
12:11PM 33.8664 -93.7269 28° Northeast 249 287 13,300  Level Memphis Center
12:12PM 33.9408 -93.6822 26° Northeast 264 304 15,900 2,580 Climbing Memphis Center
12:13PM 34.0214 -93.6275 29° Northeast 296 341 18,500 2,640 Climbing Memphis Center
12:14PM 34.1086 -93.5708 28° Northeast 326 375 21,200 2,700 Climbing Memphis Center
12:15PM 34.1975 -93.5139 28° Northeast 347 399 24,000 2,700 Climbing Memphis Center
12:16PM 34.2867 -93.4567 28° Northeast 354 407 26,700 2,460 Climbing Memphis Center
12:17PM 34.3842 -93.3897 30° Northeast 359 413 29,000 2,100 Climbing Memphis Center
12:18PM 34.4797 -93.3253 29° Northeast 369 425 30,900 1,380 Climbing Memphis Center
12:19PM 34.5772 -93.2631 28° Northeast 380 437 31,800 1,260 Climbing Memphis Center
12:20PM 34.6789 -93.1931 30° Northeast 398 458 33,500 1,680 Climbing Memphis Center
12:21PM 34.7825 -93.1283 27° Northeast 410 472 35,200 1,740 Climbing Memphis Center
12:22PM 34.8844 -93.0583 29° Northeast 410 472 37,000 1,800 Climbing Memphis Center
12:23PM 34.9839 -92.9931 28° Northeast 410 472 38,800 1,620 Climbing Memphis Center
12:24PM 35.0833 -92.9250 29° Northeast 410 472 40,300 1,260 Climbing Memphis Center
12:25PM 35.1719 -92.8719 26° Northeast 399 459 41,400 780 Climbing Memphis Center
12:26PM 35.2692 -92.8061 29° Northeast 394 453 41,900 360 Climbing Memphis Center
12:27PM 35.3686 -92.7403 28° Northeast 399 459 42,200 300 Climbing Memphis Center
12:28PM 35.4681 -92.6642 32° Northeast 412 474 42,500 300 Climbing Memphis Center
12:29PM 35.5714 -92.5956 28° Northeast 412 474 42,900 420 Climbing Memphis Center
12:30PM 35.6728 -92.5267 29° Northeast 412 474 43,400 540 Climbing Memphis Center
12:31PM 35.7781 -92.4578 28° Northeast 417 480 44,000 540 Climbing Memphis Center
12:32PM 35.8794 -92.3886 29° Northeast 417 480 44,500 480 Climbing Memphis Center
12:33PM 35.9786 -92.3219 29° Northeast 417 480 45,000 240 Climbing Memphis Center
12:34PM 36.0756 -92.2522 30° Northeast 407 468 45,000  Level Memphis Center
12:35PM 36.1744 -92.1878 28° Northeast 401 461 45,000  Level Memphis Center
12:36PM 36.2733 -92.1178 30° Northeast 401 461 45,000  Level Memphis Center
12:37PM 36.3722 -92.0531 28° Northeast 401 461 45,000  Level Memphis Center
12:38PM 36.4714 -91.9800 31° Northeast 401 461 45,000  Level Memphis Center
12:39PM 36.5783 -91.9072 29° Northeast 401 461 45,000  Level Memphis Center
12:41PM 36.7928 -91.7528 30° Northeast 406 467 45,000  Level Kansas City Center
12:42PM 36.9108 -91.6719 29° Northeast 403 464 45,000  Level Kansas City Center
12:43PM 37.0078 -91.6031 30° Northeast 400 460 45,000  Level Kansas City Center
12:44PM 37.1069 -91.5328 29° Northeast 405 466 45,000  Level Kansas City Center
12:45PM 37.2142 -91.5372 358° North 401 461 45,000  Level Kansas City Center
12:46PM 37.3156 -91.5814 341° North 392 451 45,000  Level Kansas City Center
12:47PM 37.4192 -91.6233 342° North 391 450 45,000  Level Kansas City Center
12:48PM 37.5228 -91.6633 343° North 389 448 45,000  Level Kansas City Center
12:49PM 37.6497 -91.7078 345° North 391 450 45,000  Level Kansas City Center
12:50PM 37.7589 -91.6878 North 409 471 45,000  Level Kansas City Center
12:52PM 37.8606 -91.6267 25° Northeast 408 470 45,000  Level Kansas City Center
12:53PM 37.9639 -91.5622 26° Northeast 409 471 45,000  Level Kansas City Center
12:54PM 38.0681 -91.4983 26° Northeast 414 476 45,000  Level Kansas City Center
12:55PM 38.1719 -91.4339 26° Northeast 415 478 45,000  Level Kansas City Center
12:56PM 38.2731 -91.3689 27° Northeast 411 473 45,000  Level Kansas City Center
12:57PM 38.3775 -91.3042 26° Northeast 413 475 45,000  Level Kansas City Center
12:58PM 38.5019 -91.2258 26° Northeast 414 476 45,000  Level Kansas City Center
12:59PM 38.6061 -91.1594 26° Northeast 416 479 45,000  Level Kansas City Center
01:00PM 38.7108 -91.0942 26° Northeast 416 479 45,000  Level Kansas City Center
01:01PM 38.8158 -91.0261 27° Northeast 418 481 45,000  Level Kansas City Center
01:02PM 38.9203 -90.9583 27° Northeast 418 481 45,000 -120 Level Kansas City Center
01:03PM 39.0261 -90.8908 26° Northeast 420 483 44,800 -780 Descending Kansas City Center
01:04PM 39.1344 -90.8228 26° Northeast 426 490 43,400 -1,500 Descending Kansas City Center
01:05PM 39.2692 -90.7347 27° Northeast 445 512 41,700 -1,500 Descending Kansas City Center
01:06PM 39.3828 -90.6592 27° Northeast 454 522 40,400 -1,320 Descending Kansas City Center
01:07PM 39.4928 -90.5861 27° Northeast 451 519 39,000 -1,380 Descending Kansas City Center
01:08PM 39.6056 -90.5678 North 427 491 37,600 -1,440 Descending Kansas City Center
01:09PM 39.7150 -90.5614 North 404 465 36,100 -1,440 Descending Kansas City Center
01:10PM 39.8203 -90.5544 North 385 443 34,700 -1,380 Descending Kansas City Center
01:11PM 39.9222 -90.5539 360° North 369 425 33,300 -1,500 Descending Kansas City Center
01:12PM 40.0264 -90.4944 24° Northeast 353 406 31,600 -1,140 Descending Kansas City Center
01:13PM 40.0992 -90.4161 39° Northeast 343 395 31,000 -420 Descending Kansas City Center
01:14PM 40.1269 -90.3836 42° Northeast 341 392 31,000  Level Chicago Center
01:15PM 40.2006 -90.3064 39° Northeast 339 390 31,000  Level Chicago Center
01:16PM 40.2758 -90.2264 39° Northeast 346 398 31,000  Level Chicago Center
01:17PM 40.3683 -90.1272 39° Northeast 355 409 31,000 -540 Level Chicago Center
01:18PM 40.4456 -90.0453 39° Northeast 357 411 29,900 -1,380 Descending Chicago Center
01:19PM 40.5217 -89.9642 39° Northeast 356 410 28,200 -1,740 Descending Chicago Center
01:20PM 40.5944 -89.8850 40° Northeast 347 399 26,400 -1,740 Descending Chicago Center
01:21PM 40.6672 -89.8031 40° Northeast 344 396 24,700 -1,680 Descending Chicago Center
01:22PM 40.7219 -89.6975 56° Northeast 357 411 23,000 -1,860 Descending Chicago Center
01:23PM 40.7781 -89.5669 60° Northeast 345 397 20,900 -1,920 Descending Chicago Center
01:24PM 40.8222 -89.4653 60° Northeast 339 390 19,100 -1,800 Descending Chicago Center
01:25PM 40.8669 -89.3600 61° Northeast 332 382 17,300 -1,020 Descending Chicago Center
01:26PM 40.9083 -89.2644 60° Northeast 303 349 17,000 -780 Descending Chicago Center
01:27PM 40.9547 -89.1875 51° Northeast 274 315 15,800 -1,440 Descending Chicago Center
01:28PM 41.0178 -89.0983 47° Northeast 273 314 14,100 -1,560 Descending Chicago Center
01:29PM 41.0722 -89.0192 48° Northeast 291 335 12,600 -1,440 Descending Chicago Center
01:30PM 41.1292 -88.9361 48° Northeast 304 350 11,200 -1,440 Descending Chicago Center
01:31PM 41.1842 -88.8542 48° Northeast 302 348 9,700 -1,440 Descending Chicago Center
01:32PM 41.2397 -88.7728 48° Northeast 299 344 8,300 -1,380 Descending Chicago Center
01:33PM 41.2911 -88.6967 48° Northeast 291 335 6,900 -1,140 Descending Chicago Center
01:34PM 41.3503 -88.6108 47° Northeast 275 316 6,000 -480 Descending Chicago Center
01:35PM 41.3925 -88.5383 52° Northeast 261 300 6,000  Level Chicago Center
01:36PM 41.4236 -88.4569 63° Northeast 252 290 6,000  Level Chicago Center
01:37PM 41.4592 -88.3753 60° Northeast 252 290 6,000  Level Chicago Center
01:38PM 41.4942 -88.2939 60° Northeast 253 291 6,000 -540 Level Chicago Center
01:39PM 41.5292 -88.2103 61° Northeast 255 293 5,000 -1,020 Descending Chicago Center
01:40PM 41.5664 -88.1231 60° Northeast 262 302 4,000 -540 Descending Chicago Center
01:42PM 41.6044 -88.0336 60° Northeast 268 308 4,000  Level Chicago Center
01:43PM 41.6450 -87.9383 60° Northeast 252 290 4,000 -240 Level Chicago Center
01:44PM 41.6781 -87.8867 49° Northeast 209 241 3,600 -720 Descending Chicago Center
01:45PM 41.7114 -87.8453 43° Northeast 181 208 2,600 -960 Descending Chicago Center
01:45PM 41.7333 -87.8000 57° Northeast 150 173 1,800 -900 Descending Chicago TRACON
01:46PM 41.7667 -87.7667 37° Northeast 126 145 1,000 -840 Descending Chicago TRACON